This is the latest recevied weather packets stored in our database for station/object KG5APU. If no packets are shown the sender has not sent any weather packets the latest 10 day(s).
| Time | Temp. | Humidity | Pressure | Rain* | Wind** | Luminosity | Snow |
|---|---|---|---|---|---|---|---|
| 1777047369 | 26.11° C | 80% | 1007.4 hPa | 0 mm | - | 756 W/m² | - |
| 1777046768 | 25.56° C | 82% | 1007.5 hPa | 0 mm | - | 253 W/m² | - |
| 1777046165 | 25.56° C | 83% | 1007.4 hPa | 0 mm | - | 252 W/m² | - |
| 1777045563 | 25° C | 84% | 1007 hPa | 0 mm | - | 361 W/m² | - |
| 1777044961 | 24.44° C | 86% | 1007.3 hPa | 0 mm | - | 158 W/m² | - |
| 1777044359 | 24.44° C | 85% | 1007 hPa | 0 mm | - | 144 W/m² | - |
| 1777043756 | 24.44° C | 85% | 1007 hPa | 0 mm | - | 205 W/m² | - |
| 1777043155 | 24.44° C | 85% | 1007.2 hPa | 0 mm | - | 246 W/m² | - |
| 1777042551 | 24.44° C | 86% | 1007.1 hPa | 0 mm | - | 426 W/m² | - |
| 1777041949 | 23.33° C | 87% | 1007.2 hPa | 0 mm | - | 158 W/m² | - |
| 1777041348 | 23.89° C | 87% | 1007.2 hPa | 0 mm | - | 169 W/m² | - |
| 1777040746 | 23.89° C | 86% | 1007.3 hPa | 0 mm | - | 103 W/m² | - |
| 1777040141 | 23.33° C | 87% | 1006.9 hPa | 0 mm | - | 344 W/m² | - |
| 1777039538 | 23.33° C | 87% | 1006.8 hPa | 0 mm | - | 257 W/m² | - |
| 1777038932 | 22.78° C | 88% | 1006.9 hPa | 0 mm | - | 207 W/m² | - |
| 1777038330 | 22.78° C | 89% | 1006.7 hPa | 0 mm | - | 187 W/m² | - |
| 1777037727 | 22.22° C | 89% | 1006.9 hPa | 0 mm | - | 73 W/m² | - |
| 1777037127 | 22.22° C | 90% | 1006.8 hPa | 0 mm | - | 71 W/m² | - |
| 1777036527 | 22.22° C | 90% | 1006.7 hPa | 0 mm | - | 57 W/m² | - |
| 1777035923 | 22.22° C | 90% | 1006.5 hPa | 0 mm | - | 52 W/m² | - |
| 1777035319 | 22.22° C | 90% | 1006.6 hPa | 0 mm | - | 54 W/m² | - |
| 1777034718 | 22.22° C | 90% | 1006.4 hPa | 0 mm | - | 32 W/m² | - |
| 1777034118 | 22.22° C | 89% | 1006.3 hPa | 0 mm | - | 28 W/m² | - |
| 1777033514 | 21.67° C | 89% | 1006.1 hPa | 0 mm | - | 41 W/m² | - |
| 1777032915 | 21.67° C | 89% | 1006 hPa | 0 mm | - | 39 W/m² | - |
* Rain latest hour (hover to see other rain measurements)
** Current wind speed in m/s (hover to see current wind gust speed)